Time;durP1;ratioP1;P1;durP2;ratioP2;P2;SDS_P1;SDS_P2;PMS_P1;PMS_P2;Temp;Humidity;BMP_temperature;BMP_pressure;BME280_temperature;BME280_humidity;BME280_pressure;Samples;Min_cycle;Max_cycle;Signal;HPM_P1;HPM_P2
2021/08/08 16:04:02;;;;;;;4.10;3.80;;;;;;;33.19;25.81;94774.72;6212933;22;1424122;-83
2021/08/08 16:06:29;;;;;;;4.10;3.70;;;;;;;33.17;24.87;94772.28;6275682;22;20257;-84
2021/08/08 16:08:56;;;;;;;12.30;4.50;;;;;;;33.13;26.27;94773.09;6276491;22;20836;-86
2021/08/08 16:11:23;;;;;;;5.10;4.70;;;;;;;33.13;25.45;94778.53;6276819;22;20432;-87
2021/08/08 16:13:50;;;;;;;4.20;3.80;;;;;;;33.06;25.26;94787.00;6278227;22;20483;-87
2021/08/08 16:16:17;;;;;;;5.90;4.00;;;;;;;33.05;25.52;94779.09;6279009;22;20468;-86
2021/08/08 16:18:44;;;;;;;4.30;3.90;;;;;;;32.94;26.99;94783.72;6278218;22;20413;-85
2021/08/08 16:21:12;;;;;;;6.87;4.80;;;;;;;33.00;27.73;94790.81;6278202;22;20479;-85
2021/08/08 16:23:39;;;;;;;6.20;4.10;;;;;;;33.06;28.06;94780.72;6278089;22;20472;-86
2021/08/08 16:26:06;;;;;;;5.23;4.30;;;;;;;32.91;27.07;94776.91;6278094;22;20431;-87
2021/08/08 16:28:35;;;;;;;8.20;4.87;;;;;;;33.01;27.72;94784.28;6277769;22;20432;-84
2021/08/08 16:31:02;;;;;;;5.33;4.83;;;;;;;33.00;27.63;94782.66;6278871;22;20400;-80
2021/08/08 16:33:29;;;;;;;5.70;5.03;;;;;;;32.98;27.68;94781.28;6277587;22;20483;-80
2021/08/08 16:35:56;;;;;;;18.70;7.30;;;;;;;32.95;30.68;94774.47;6277116;22;20748;-80
2021/08/08 16:38:24;;;;;;;29.47;10.57;;;;;;;32.94;31.55;94781.81;6277045;22;20480;-80
2021/08/08 16:40:52;;;;;;;27.83;12.77;;;;;;;32.89;30.99;94781.00;6277553;22;20884;-84
2021/08/08 16:43:19;;;;;;;12.33;6.07;;;;;;;32.90;31.67;94782.63;6278056;22;20491;-80
2021/08/08 16:45:45;;;;;;;8.77;5.40;;;;;;;32.81;30.62;94784.25;6277333;22;20479;-81
2021/08/08 16:48:12;;;;;;;8.87;5.50;;;;;;;32.76;30.71;94792.41;6278431;22;20472;-81
2021/08/08 16:50:39;;;;;;;5.87;4.30;;;;;;;32.63;31.36;94789.09;6278187;22;20527;-81
2021/08/08 16:53:06;;;;;;;10.80;5.20;;;;;;;32.55;30.48;94794.25;6278200;22;20475;-81
2021/08/08 16:55:35;;;;;;;17.43;7.53;;;;;;;32.46;34.97;94798.59;6278217;22;20477;-81
2021/08/08 16:58:01;;;;;;;10.20;5.67;;;;;;;32.32;31.88;94801.00;6277553;22;20458;-81
2021/08/08 17:00:28;;;;;;;5.93;4.30;;;;;;;32.24;32.30;94796.88;6278083;22;20739;-81
2021/08/08 17:02:55;;;;;;;13.13;5.80;;;;;;;32.16;32.32;94802.03;6277607;22;20479;-81
2021/08/08 17:05:22;;;;;;;4.77;4.47;;;;;;;32.12;32.78;94800.94;6298873;22;20474;-80
2021/08/08 17:07:49;;;;;;;6.00;5.50;;;;;;;32.03;34.20;94803.31;6308547;22;20471;-81
2021/08/08 17:10:16;;;;;;;4.60;4.30;;;;;;;31.91;33.26;94798.13;6254896;22;20512;-81
2021/08/08 17:12:44;;;;;;;5.60;4.03;;;;;;;31.71;35.16;94795.31;6308933;22;20479;-81
2021/08/08 17:15:12;;;;;;;7.20;5.17;;;;;;;31.68;35.52;94803.97;6308213;22;20475;-81
2021/08/08 17:17:39;;;;;;;10.80;5.40;;;;;;;31.58;33.94;94806.63;6254773;22;20768;-81
2021/08/08 17:20:07;;;;;;;9.87;5.37;;;;;;;31.46;33.65;94806.81;6308709;22;20431;-81
2021/08/08 17:22:34;;;;;;;6.73;5.50;;;;;;;31.37;34.66;94816.53;6308555;22;20478;-81
2021/08/08 17:25:04;;;;;;;5.67;4.90;;;;;;;31.24;34.64;94815.09;6308698;22;20427;-81
2021/08/08 17:27:32;;;;;;;5.30;4.30;;;;;;;31.17;34.29;94814.50;6308559;22;20457;-81
2021/08/08 17:30:00;;;;;;;4.80;4.30;;;;;;;31.02;35.58;94823.31;6308776;22;20442;-81
2021/08/08 17:32:27;;;;;;;4.40;4.00;;;;;;;30.96;34.32;94828.97;6308806;22;20577;-81
2021/08/08 17:34:54;;;;;;;4.40;4.00;;;;;;;30.69;37.47;94829.81;6308892;22;20479;-81
2021/08/08 17:37:21;;;;;;;4.97;4.53;;;;;;;30.66;35.39;94833.03;6255252;22;20474;-81
2021/08/08 17:39:48;;;;;;;4.40;4.10;;;;;;;30.60;36.28;94831.31;6308300;22;20950;-81
2021/08/08 17:42:15;;;;;;;5.00;4.60;;;;;;;30.55;36.46;94833.94;6308571;22;20483;-80
2021/08/08 17:44:42;;;;;;;4.50;4.10;;;;;;;30.46;35.55;94830.06;6308846;22;20543;-81
2021/08/08 17:47:10;;;;;;;4.73;4.20;;;;;;;30.35;36.17;94829.13;6308427;22;20474;-81
2021/08/08 17:49:37;;;;;;;5.27;4.77;;;;;;;30.26;36.13;94835.25;6308801;22;20521;-81
2021/08/08 17:52:05;;;;;;;4.60;4.20;;;;;;;30.11;36.97;94831.31;6254518;22;20408;-81
2021/08/08 17:54:32;;;;;;;5.10;4.60;;;;;;;30.03;38.71;94845.28;6308611;22;20400;-82
2021/08/08 17:57:00;;;;;;;6.27;4.47;;;;;;;29.38;37.85;94851.38;6308916;22;20442;-82
2021/08/08 17:59:27;;;;;;;11.33;5.67;;;;;;;29.66;40.75;94860.47;6309686;22;20424;-82
2021/08/08 18:01:56;;;;;;;8.40;4.90;;;;;;;29.68;37.56;94866.44;6255073;22;20482;-82
2021/08/08 18:04:25;;;;;;;6.30;5.27;;;;;;;29.79;41.77;94860.13;6308631;22;20985;-82
2021/08/08 18:06:51;;;;;;;8.77;6.23;;;;;;;29.91;43.22;94872.44;6309167;22;20479;-82
2021/08/08 18:09:18;;;;;;;5.13;4.60;;;;;;;29.98;39.44;94866.84;6308662;22;20486;-84
2021/08/08 18:11:45;;;;;;;7.00;5.47;;;;;;;30.07;40.35;94878.06;6308279;22;20490;-80
2021/08/08 18:14:12;;;;;;;8.90;6.10;;;;;;;29.96;41.58;94877.09;6308593;22;20424;-83
2021/08/08 18:16:39;;;;;;;10.87;5.87;;;;;;;30.02;40.45;94881.50;6308784;22;20486;-82
2021/08/08 18:19:06;;;;;;;6.30;5.70;;;;;;;29.97;40.50;94873.31;6308622;22;20475;-82
2021/08/08 18:21:35;;;;;;;5.87;5.30;;;;;;;30.02;40.22;94886.09;6254829;22;20478;-83
2021/08/08 18:24:02;;;;;;;12.30;5.50;;;;;;;29.99;41.42;94895.53;6308793;22;20467;-83
2021/08/08 18:26:29;;;;;;;6.27;5.30;;;;;;;30.01;40.74;94896.09;6317928;22;20446;-82
2021/08/08 18:28:56;;;;;;;5.10;4.60;;;;;;;29.96;39.89;94898.75;6314221;22;20400;-82
2021/08/08 18:31:23;;;;;;;9.63;4.70;;;;;;;29.94;39.99;94903.59;6308639;22;20542;-81
2021/08/08 18:33:50;;;;;;;4.60;3.87;;;;;;;29.88;39.57;94904.59;6308235;22;20479;-80
2021/08/08 18:36:17;;;;;;;5.00;4.60;;;;;;;29.81;39.81;94909.38;6254530;22;20427;-80
2021/08/08 18:38:45;;;;;;;6.23;4.50;;;;;;;29.85;39.60;94915.94;6307773;22;20475;-80
2021/08/08 18:41:12;;;;;;;4.53;4.17;;;;;;;29.79;39.25;94915.03;6308247;22;20423;-80
2021/08/08 18:43:39;;;;;;;4.77;4.30;;;;;;;29.73;39.58;94917.91;6307886;22;20403;-81
2021/08/08 18:46:06;;;;;;;4.90;4.60;;;;;;;29.65;38.53;94926.44;6308246;22;20406;-81
2021/08/08 18:48:33;;;;;;;6.33;4.63;;;;;;;29.57;39.37;94925.00;6308254;22;20784;-82
2021/08/08 18:51:00;;;;;;;6.05;4.75;;;;;;;29.72;40.36;94927.09;6253733;22;20456;-84
2021/08/08 18:53:27;;;;;;;6.23;5.53;;;;;;;29.58;54.20;94938.25;6311080;22;20530;-81
2021/08/08 19:46:30;;;;;;;3.53;3.23;;;;;;;29.07;38.50;94966.28;6307526;22;20904;-85
2021/08/08 19:48:57;;;;;;;4.37;3.97;;;;;;;28.90;38.19;94968.13;6309831;22;20390;-85
2021/08/08 19:51:24;;;;;;;5.23;4.73;;;;;;;28.79;39.54;94977.09;6310343;22;20800;-85
2021/08/08 19:53:51;;;;;;;4.33;4.03;;;;;;;28.55;38.70;94973.63;6309817;22;20757;-85
2021/08/08 19:56:22;;;;;;;6.43;5.03;;;;;;;28.33;39.23;94968.06;6309383;22;20486;-90
2021/08/08 19:58:50;;;;;;;6.23;4.10;;;;;;;28.15;40.29;94976.28;6310285;22;20463;-90
2021/08/08 20:01:17;;;;;;;3.87;3.57;;;;;;;27.96;39.88;94975.59;6310921;22;20415;-84
2021/08/08 20:10:29;;;;;;;5.47;4.30;;;;;;;27.17;41.00;94973.16;6279676;22;20519;-88
2021/08/08 20:12:56;;;;;;;4.40;4.10;;;;;;;27.11;42.17;94973.25;6278466;22;20888;-87
2021/08/08 20:15:23;;;;;;;5.20;4.40;;;;;;;27.09;42.82;94978.88;6278455;22;20428;-88
2021/08/08 20:17:50;;;;;;;4.23;3.90;;;;;;;27.26;43.25;94970.16;6279081;22;20432;-87
2021/08/08 20:20:18;;;;;;;3.50;3.20;;;;;;;27.31;42.28;94976.47;6278754;22;20928;-87
2021/08/08 20:22:45;;;;;;;3.83;3.53;;;;;;;27.33;42.74;94981.63;6278730;22;20450;-87
2021/08/08 20:25:17;;;;;;;4.27;3.90;;;;;;;27.38;42.21;94971.78;6278927;22;20435;-87
2021/08/08 20:27:47;;;;;;;5.20;4.80;;;;;;;27.44;42.08;94970.03;6280420;22;20393;-87
2021/08/08 20:30:15;;;;;;;6.07;4.00;;;;;;;27.50;42.02;94971.81;6286050;22;20832;-86
2021/08/08 20:32:43;;;;;;;4.73;4.33;;;;;;;27.43;42.68;94973.78;6284752;22;20401;-87
2021/08/08 20:38:32;;;;;;;3.37;3.17;;;;;;;27.51;42.60;94976.16;6278253;22;20526;-87
2021/08/08 20:40:59;;;;;;;4.03;3.73;;;;;;;27.55;42.29;94980.03;6225822;22;20411;-87
2021/08/08 20:43:27;;;;;;;4.50;4.10;;;;;;;27.55;41.45;94973.81;6278083;22;20480;-87
2021/08/08 20:45:54;;;;;;;7.07;5.00;;;;;;;27.56;42.26;94983.53;6278390;22;20504;-86
2021/08/08 20:48:21;;;;;;;4.37;3.97;;;;;;;27.54;42.39;94972.19;6278711;22;20431;-87
2021/08/08 20:50:49;;;;;;;3.97;3.67;;;;;;;27.53;42.95;94982.13;6279288;22;20436;-87
2021/08/08 20:53:16;;;;;;;4.50;4.20;;;;;;;27.50;42.91;94981.78;6279610;22;20470;-86
2021/08/08 20:55:43;;;;;;;4.43;3.60;;;;;;;27.46;43.59;94976.84;6278997;22;20393;-87
2021/08/08 20:58:10;;;;;;;4.10;3.80;;;;;;;27.43;43.07;94979.19;6250517;22;20400;-87
2021/08/08 21:00:39;;;;;;;5.93;4.17;;;;;;;27.45;42.47;94977.88;6279143;22;20744;-87
2021/08/08 21:03:08;;;;;;;4.07;3.77;;;;;;;27.38;42.39;94969.09;6278055;22;20393;-87
2021/08/08 21:05:36;;;;;;;4.20;3.63;;;;;;;27.43;41.79;94979.19;6278336;22;20401;-87
2021/08/08 21:08:04;;;;;;;4.07;3.70;;;;;;;27.38;41.08;94970.97;6278252;22;20393;-86
2021/08/08 21:10:35;;;;;;;4.03;3.63;;;;;;;27.35;40.48;94977.66;6278116;22;20428;-87
2021/08/08 21:16:40;;;;;;;4.00;3.70;;;;;;;27.04;41.60;94992.22;6244817;23;20445;-87
2021/08/08 21:19:08;;;;;;;4.40;4.00;;;;;;;27.15;42.62;94996.00;6245064;23;20839;-87
2021/08/08 21:21:35;;;;;;;5.00;4.37;;;;;;;27.02;41.61;94994.31;6244881;23;21278;-87
2021/08/08 21:24:02;;;;;;;5.73;3.97;;;;;;;27.01;42.42;94989.16;6219702;23;20425;-86
2021/08/08 21:26:29;;;;;;;3.73;3.43;;;;;;;26.91;41.57;94986.19;6170119;23;20441;-86
2021/08/08 21:28:56;;;;;;;3.97;3.67;;;;;;;26.81;44.40;94987.53;6244597;23;20452;-87
2021/08/08 21:34:46;;;;;;;4.50;4.10;;;;;;;26.88;42.35;94994.69;6277823;22;20363;-87
2021/08/08 21:37:13;;;;;;;4.13;3.67;;;;;;;26.90;42.92;95000.69;6278374;22;21078;-87
2021/08/08 21:39:40;;;;;;;3.83;3.53;;;;;;;26.88;44.46;95000.91;6277513;22;20475;-87
2021/08/08 21:42:07;;;;;;;3.63;3.33;;;;;;;26.95;42.90;95004.34;6277520;22;20381;-87
2021/08/08 21:44:34;;;;;;;5.83;3.17;;;;;;;27.02;42.79;95004.28;6277823;22;20421;-86
2021/08/08 21:47:01;;;;;;;4.10;3.50;;;;;;;27.02;41.62;95010.50;6278291;22;20760;-87
2021/08/08 21:49:28;;;;;;;6.40;4.03;;;;;;;26.95;42.50;95003.53;6277413;22;20516;-87
2021/08/08 21:51:56;;;;;;;4.00;2.90;;;;;;;26.90;42.58;95011.47;6277945;22;20460;-86
2021/08/08 21:54:23;;;;;;;3.50;3.30;;;;;;;26.82;42.79;95012.59;6277355;22;21189;-87
2021/08/08 21:56:50;;;;;;;4.50;3.40;;;;;;;26.61;42.16;95013.09;6277143;22;20959;-86
2021/08/08 21:59:17;;;;;;;4.47;2.83;;;;;;;26.49;44.26;95000.38;6277627;22;20446;-87
2021/08/08 22:01:44;;;;;;;3.33;3.13;;;;;;;26.39;44.38;95010.88;6277944;22;20405;-87
2021/08/08 22:04:13;;;;;;;4.53;3.70;;;;;;;26.30;43.68;95005.97;6277827;22;20971;-87
2021/08/08 22:06:41;;;;;;;4.07;3.77;;;;;;;26.30;44.12;95011.34;6249827;22;20432;-88
2021/08/08 22:09:09;;;;;;;3.60;3.30;;;;;;;26.23;44.52;95008.72;6276899;22;20393;-88
2021/08/08 22:11:36;;;;;;;4.10;3.80;;;;;;;26.15;45.22;95019.78;6278351;22;20456;-88
2021/08/08 22:14:04;;;;;;;3.47;3.27;;;;;;;26.17;46.29;95023.06;6277323;22;20424;-88
2021/08/08 22:16:31;;;;;;;3.80;3.50;;;;;;;26.17;45.93;95020.38;6277072;22;21153;-88
2021/08/08 22:18:58;;;;;;;4.43;3.67;;;;;;;26.08;45.26;95010.97;6277079;22;20427;-88
2021/08/08 22:21:26;;;;;;;4.10;3.67;;;;;;;25.91;44.23;95019.59;6277444;22;20473;-88
2021/08/08 22:23:56;;;;;;;3.93;3.63;;;;;;;25.92;46.40;95021.25;6277653;22;20476;-87
2021/08/08 22:26:25;;;;;;;3.30;3.10;;;;;;;25.85;43.97;95015.13;6277528;22;20381;-87
2021/08/08 22:28:52;;;;;;;3.70;3.40;;;;;;;25.75;44.52;95014.81;6276824;22;20510;-88
2021/08/08 22:31:19;;;;;;;5.20;3.40;;;;;;;25.68;44.90;95022.09;6277260;22;20515;-88
2021/08/08 22:33:46;;;;;;;3.13;2.93;;;;;;;25.69;45.62;95014.84;6277366;22;20451;-88
2021/08/08 22:36:13;;;;;;;3.83;3.53;;;;;;;25.76;46.05;95031.78;6224535;22;20915;-88
2021/08/08 22:38:40;;;;;;;4.17;3.77;;;;;;;25.86;45.81;95024.84;6277281;22;20432;-87
2021/08/08 22:41:07;;;;;;;5.17;3.53;;;;;;;25.93;46.75;95022.91;6276870;22;20793;-87
2021/08/08 22:43:36;;;;;;;3.50;3.30;;;;;;;25.92;46.36;95020.44;6276814;22;20498;-88
2021/08/08 22:46:03;;;;;;;3.90;3.60;;;;;;;25.82;46.97;95036.25;6277870;22;20834;-88
2021/08/08 22:48:32;;;;;;;4.50;3.40;;;;;;;25.90;48.31;95023.34;6277006;22;20471;-88
2021/08/08 22:50:59;;;;;;;4.47;3.20;;;;;;;25.89;46.45;95023.56;6224433;22;20448;-87
2021/08/08 22:53:26;;;;;;;4.13;3.70;;;;;;;26.02;46.06;95019.91;6276961;22;20919;-88
2021/08/08 22:55:53;;;;;;;4.93;4.07;;;;;;;25.92;45.70;95017.75;6276681;22;20446;-87
2021/08/08 22:58:20;;;;;;;3.27;3.00;;;;;;;25.91;45.79;95025.00;6276812;22;20494;-87
2021/08/08 23:00:50;;;;;;;3.73;3.43;;;;;;;25.94;45.59;95026.41;6276595;22;20483;-87
2021/08/08 23:03:18;;;;;;;3.80;3.50;;;;;;;25.91;45.05;95035.75;6277861;22;20781;-87
2021/08/08 23:05:45;;;;;;;4.33;4.03;;;;;;;25.87;46.25;95033.72;6224500;22;20471;-88
2021/08/08 23:11:34;;;;;;;4.10;3.80;;;;;;;25.84;46.90;95026.94;6276781;22;20420;-88
2021/08/08 23:14:01;;;;;;;3.50;3.20;;;;;;;25.79;45.76;95025.94;6276632;22;20442;-88
2021/08/08 23:16:29;;;;;;;3.63;3.33;;;;;;;25.84;45.83;95024.22;6224405;22;20447;-87
2021/08/08 23:18:56;;;;;;;3.67;3.47;;;;;;;25.84;46.07;95024.22;6276603;22;20923;-87
2021/08/08 23:21:23;;;;;;;3.37;3.17;;;;;;;25.87;45.50;95014.91;6278020;22;20915;-87
2021/08/08 23:23:51;;;;;;;3.40;3.20;;;;;;;25.99;46.48;95031.13;6278780;22;20392;-88
2021/08/08 23:26:18;;;;;;;3.50;3.30;;;;;;;25.97;46.29;95019.75;6225922;22;20448;-87
2021/08/08 23:28:45;;;;;;;7.57;3.47;;;;;;;26.05;45.83;95020.31;6279117;22;20442;-87
2021/08/08 23:31:12;;;;;;;4.00;3.70;;;;;;;26.08;46.15;95024.44;6279800;22;20562;-87
2021/08/08 23:33:43;;;;;;;4.47;3.70;;;;;;;26.06;46.96;95021.13;6278636;22;20898;-88
2021/08/08 23:36:10;;;;;;;4.17;3.70;;;;;;;25.98;47.04;95010.66;6279089;22;20388;-88
2021/08/08 23:38:37;;;;;;;4.00;3.60;;;;;;;25.96;46.46;95023.50;6278781;22;20416;-87
2021/08/08 23:41:04;;;;;;;3.67;3.37;;;;;;;25.88;47.65;95016.53;6278489;22;20523;-88
2021/08/08 23:43:31;;;;;;;6.00;3.70;;;;;;;25.89;47.93;95019.00;6278938;22;20498;-87
2021/08/08 23:45:58;;;;;;;3.80;3.50;;;;;;;25.79;47.18;95021.41;6278911;22;20454;-88
2021/08/08 23:48:28;;;;;;;5.50;4.20;;;;;;;25.75;47.56;95017.50;6278640;22;20398;-87
2021/08/08 23:50:57;;;;;;;4.43;3.90;;;;;;;25.74;47.71;95020.41;6279737;22;20718;-88
2021/08/08 23:53:25;;;;;;;4.03;3.67;;;;;;;25.78;48.47;95014.38;6279083;22;20411;-88
2021/08/08 23:55:52;;;;;;;6.30;3.83;;;;;;;25.71;48.52;95013.59;6278485;22;20467;-87
2021/08/08 23:58:19;;;;;;;3.93;3.67;;;;;;;25.66;48.00;95016.09;6278359;22;20914;-87
